Ana Sayfa
METAR-TAF:

METAR-TAF

Havaalanları :

Gümrü, Ermenistan

Şirak Havalimanı

Enlem: 40-45-01N, Boylam: 043-51-33E, yükseklik: 1524 m

Güncel hava durumu gözlemi

Rapor saat 03:00 UTC de 33 dakika önce yapıldı.
Sakin rüzgar
Sıcaklık 0°C
Nem 100%
Basınç 1007 hPa
Görüş mesafesi: 4800 m
2600 ft yükseklikte çok bulutlu
hafif kar, yağmur, Pus

METAR: UDSG 260300Z 00000KT 4800 -SNRA BR OVC026 00/M00 Q1007 R02/////// NOSIG

Saat: 07:33 (03:33 UTC)

Tahmin

Rapor saat 23:02 UTC de 4 saat ve 31 dakika önce yapıldı.
Ayın 26'si saat 00 UTC'den ayın 26'si saat 24 UTC'ye kadar geçerli Tahmin
Rüzgar güneybatıdan 6 kt
Görüş mesafesi: 3000 m
3000 ft yükseklikte çok bulutlu
Pus
Geçici
ayın 26'si saat 00 UTC'den ayın 26'si saat 12 UTC'ye kadar
Görüş mesafesi: 1000 m
1000 ft yükseklikte çok bulutlu
kar, yağmur

TAF: UDSG 252302Z 2600/2624 22006KT 3000 BR OVC030 TEMPO 2600/2612 1000 SNRA OVC010

4.000'den fazla havaalanı için hava durumu gözlemleri ve tahminleri (METAR ve TAF raporları).

Kullanılabilir istasyonlar harita üzerinde sarı ve kırmızı noktalarla gösterilir.

İstasyonun adını görmek için fareyi noktanın üzerinde gezdirin.

Sonrasında hava gözlem ve tahminlerini görmek için tıklayın.

Haritayı değiştirmek için: yaklaştırmak için siyah artı işaretli yeşil düğmeye ve uzaklaştırmak için de eksi işaretli düğmeye hızla tıklayın; bitişik haritalar için yeşil okları kullanın.


METAR-TAF: